sensor_id;sensor_type;location;lat;lon;timestamp;P1;durP1;ratioP1;P2;durP2;ratioP2
48853;SDS011;34673;52.808;17.856;2023-11-19T00:00:20;49.33;;;23.83;;
48853;SDS011;34673;52.808;17.856;2023-11-19T00:02:47;47.33;;;23.30;;
48853;SDS011;34673;52.808;17.856;2023-11-19T00:05:15;53.10;;;25.65;;
48853;SDS011;34673;52.808;17.856;2023-11-19T00:07:42;51.53;;;24.33;;
48853;SDS011;34673;52.808;17.856;2023-11-19T00:10:14;48.30;;;24.17;;
48853;SDS011;34673;52.808;17.856;2023-11-19T00:12:49;45.92;;;23.50;;
48853;SDS011;34673;52.808;17.856;2023-11-19T00:15:17;49.85;;;23.77;;
48853;SDS011;34673;52.808;17.856;2023-11-19T00:17:46;52.42;;;24.63;;
48853;SDS011;34673;52.808;17.856;2023-11-19T00:20:17;48.03;;;23.77;;
48853;SDS011;34673;52.808;17.856;2023-11-19T00:22:45;49.88;;;24.00;;
48853;SDS011;34673;52.808;17.856;2023-11-19T00:25:19;53.63;;;26.05;;
48853;SDS011;34673;52.808;17.856;2023-11-19T00:27:49;52.65;;;24.60;;
48853;SDS011;34673;52.808;17.856;2023-11-19T00:30:17;50.22;;;24.67;;
48853;SDS011;34673;52.808;17.856;2023-11-19T00:32:45;50.67;;;23.40;;
48853;SDS011;34673;52.808;17.856;2023-11-19T00:35:13;51.55;;;24.98;;
48853;SDS011;34673;52.808;17.856;2023-11-19T00:37:42;49.33;;;24.33;;
48853;SDS011;34673;52.808;17.856;2023-11-19T00:40:09;52.92;;;25.55;;
48853;SDS011;34673;52.808;17.856;2023-11-19T00:42:38;53.05;;;24.33;;
48853;SDS011;34673;52.808;17.856;2023-11-19T00:45:05;47.17;;;23.92;;
48853;SDS011;34673;52.808;17.856;2023-11-19T00:47:38;53.47;;;25.98;;
48853;SDS011;34673;52.808;17.856;2023-11-19T00:50:06;47.47;;;23.27;;
48853;SDS011;34673;52.808;17.856;2023-11-19T00:52:37;49.38;;;23.60;;
48853;SDS011;34673;52.808;17.856;2023-11-19T00:55:04;49.85;;;22.70;;
48853;SDS011;34673;52.808;17.856;2023-11-19T00:57:34;51.42;;;25.05;;
48853;SDS011;34673;52.808;17.856;2023-11-19T01:00:02;55.90;;;25.38;;
48853;SDS011;34673;52.808;17.856;2023-11-19T01:02:47;53.90;;;24.98;;
48853;SDS011;34673;52.808;17.856;2023-11-19T01:05:18;52.33;;;24.80;;
48853;SDS011;34673;52.808;17.856;2023-11-19T01:07:49;55.50;;;26.42;;
48853;SDS011;34673;52.808;17.856;2023-11-19T01:10:19;57.67;;;27.27;;
48853;SDS011;34673;52.808;17.856;2023-11-19T01:12:47;62.78;;;30.30;;
48853;SDS011;34673;52.808;17.856;2023-11-19T01:15:14;63.75;;;29.35;;
48853;SDS011;34673;52.808;17.856;2023-11-19T01:17:42;59.13;;;27.00;;
48853;SDS011;34673;52.808;17.856;2023-11-19T01:20:13;54.30;;;25.67;;
48853;SDS011;34673;52.808;17.856;2023-11-19T01:22:41;52.35;;;26.20;;
48853;SDS011;34673;52.808;17.856;2023-11-19T01:25:08;56.50;;;25.95;;
48853;SDS011;34673;52.808;17.856;2023-11-19T01:27:35;53.05;;;24.67;;
48853;SDS011;34673;52.808;17.856;2023-11-19T01:30:03;55.47;;;26.35;;
48853;SDS011;34673;52.808;17.856;2023-11-19T01:32:31;55.67;;;25.23;;
48853;SDS011;34673;52.808;17.856;2023-11-19T01:34:58;53.28;;;24.73;;
48853;SDS011;34673;52.808;17.856;2023-11-19T01:37:25;53.38;;;24.75;;
48853;SDS011;34673;52.808;17.856;2023-11-19T01:39:53;56.10;;;26.75;;
48853;SDS011;34673;52.808;17.856;2023-11-19T01:42:23;56.85;;;28.48;;
48853;SDS011;34673;52.808;17.856;2023-11-19T01:45:00;54.72;;;26.27;;
48853;SDS011;34673;52.808;17.856;2023-11-19T01:47:28;58.10;;;25.42;;
48853;SDS011;34673;52.808;17.856;2023-11-19T01:49:57;50.28;;;24.48;;
48853;SDS011;34673;52.808;17.856;2023-11-19T01:52:26;51.58;;;23.73;;
48853;SDS011;34673;52.808;17.856;2023-11-19T01:54:54;53.22;;;24.08;;
48853;SDS011;34673;52.808;17.856;2023-11-19T01:57:22;48.17;;;24.05;;
48853;SDS011;34673;52.808;17.856;2023-11-19T01:59:50;49.25;;;22.55;;
48853;SDS011;34673;52.808;17.856;2023-11-19T02:02:19;45.42;;;21.73;;
48853;SDS011;34673;52.808;17.856;2023-11-19T02:04:49;43.97;;;22.15;;
48853;SDS011;34673;52.808;17.856;2023-11-19T02:09:44;47.38;;;21.83;;
48853;SDS011;34673;52.808;17.856;2023-11-19T02:12:12;42.65;;;20.83;;
48853;SDS011;34673;52.808;17.856;2023-11-19T02:14:39;42.80;;;20.75;;
48853;SDS011;34673;52.808;17.856;2023-11-19T02:17:07;40.20;;;19.63;;
48853;SDS011;34673;52.808;17.856;2023-11-19T02:19:51;44.28;;;21.50;;
48853;SDS011;34673;52.808;17.856;2023-11-19T02:22:19;41.25;;;19.35;;
48853;SDS011;34673;52.808;17.856;2023-11-19T02:24:46;46.30;;;21.48;;
48853;SDS011;34673;52.808;17.856;2023-11-19T02:27:25;40.45;;;19.77;;
48853;SDS011;34673;52.808;17.856;2023-11-19T02:30:02;39.25;;;18.40;;
48853;SDS011;34673;52.808;17.856;2023-11-19T02:32:33;37.28;;;19.02;;
48853;SDS011;34673;52.808;17.856;2023-11-19T02:35:01;37.42;;;18.83;;
48853;SDS011;34673;52.808;17.856;2023-11-19T02:37:31;37.78;;;17.88;;
48853;SDS011;34673;52.808;17.856;2023-11-19T02:39:58;36.70;;;18.48;;
48853;SDS011;34673;52.808;17.856;2023-11-19T02:42:36;42.33;;;19.63;;
48853;SDS011;34673;52.808;17.856;2023-11-19T02:45:03;34.60;;;18.10;;
48853;SDS011;34673;52.808;17.856;2023-11-19T02:47:33;36.63;;;19.05;;
48853;SDS011;34673;52.808;17.856;2023-11-19T02:50:01;33.53;;;17.77;;
48853;SDS011;34673;52.808;17.856;2023-11-19T02:52:29;35.53;;;19.10;;
48853;SDS011;34673;52.808;17.856;2023-11-19T02:55:01;33.85;;;17.73;;
48853;SDS011;34673;52.808;17.856;2023-11-19T02:57:32;33.78;;;18.75;;
48853;SDS011;34673;52.808;17.856;2023-11-19T03:02:26;32.75;;;16.05;;
48853;SDS011;34673;52.808;17.856;2023-11-19T03:05:01;29.48;;;15.15;;
48853;SDS011;34673;52.808;17.856;2023-11-19T03:07:30;34.80;;;17.58;;
48853;SDS011;34673;52.808;17.856;2023-11-19T03:09:57;32.72;;;17.60;;
48853;SDS011;34673;52.808;17.856;2023-11-19T03:12:24;33.00;;;18.20;;
48853;SDS011;34673;52.808;17.856;2023-11-19T03:14:53;34.45;;;18.40;;
48853;SDS011;34673;52.808;17.856;2023-11-19T03:17:22;33.78;;;18.05;;
48853;SDS011;34673;52.808;17.856;2023-11-19T03:19:51;33.33;;;19.00;;
48853;SDS011;34673;52.808;17.856;2023-11-19T03:22:18;33.58;;;17.80;;
48853;SDS011;34673;52.808;17.856;2023-11-19T03:24:47;34.63;;;17.17;;
48853;SDS011;34673;52.808;17.856;2023-11-19T03:27:18;34.95;;;18.02;;
48853;SDS011;34673;52.808;17.856;2023-11-19T03:29:45;30.77;;;16.65;;
48853;SDS011;34673;52.808;17.856;2023-11-19T03:32:12;33.47;;;17.75;;
48853;SDS011;34673;52.808;17.856;2023-11-19T03:34:39;34.50;;;17.98;;
48853;SDS011;34673;52.808;17.856;2023-11-19T03:37:07;33.50;;;17.80;;
48853;SDS011;34673;52.808;17.856;2023-11-19T03:39:35;31.50;;;16.23;;
48853;SDS011;34673;52.808;17.856;2023-11-19T03:42:02;33.00;;;17.73;;
48853;SDS011;34673;52.808;17.856;2023-11-19T03:44:30;32.92;;;17.35;;
48853;SDS011;34673;52.808;17.856;2023-11-19T03:46:57;32.60;;;17.90;;
48853;SDS011;34673;52.808;17.856;2023-11-19T03:49:24;38.45;;;19.45;;
48853;SDS011;34673;52.808;17.856;2023-11-19T03:51:51;30.05;;;17.25;;
48853;SDS011;34673;52.808;17.856;2023-11-19T03:54:19;31.42;;;16.73;;
48853;SDS011;34673;52.808;17.856;2023-11-19T03:56:47;28.65;;;15.18;;
48853;SDS011;34673;52.808;17.856;2023-11-19T03:59:14;29.95;;;16.42;;
48853;SDS011;34673;52.808;17.856;2023-11-19T04:01:42;30.95;;;15.82;;
48853;SDS011;34673;52.808;17.856;2023-11-19T04:04:09;29.17;;;16.15;;
48853;SDS011;34673;52.808;17.856;2023-11-19T04:06:36;33.05;;;17.63;;
48853;SDS011;34673;52.808;17.856;2023-11-19T04:09:03;27.98;;;15.43;;
48853;SDS011;34673;52.808;17.856;2023-11-19T04:11:31;34.30;;;16.92;;
48853;SDS011;34673;52.808;17.856;2023-11-19T04:13:59;29.17;;;15.65;;
48853;SDS011;34673;52.808;17.856;2023-11-19T04:16:27;31.67;;;16.05;;
48853;SDS011;34673;52.808;17.856;2023-11-19T04:18:57;27.25;;;15.68;;
48853;SDS011;34673;52.808;17.856;2023-11-19T04:21:24;29.58;;;16.08;;
48853;SDS011;34673;52.808;17.856;2023-11-19T04:23:52;32.30;;;16.60;;
48853;SDS011;34673;52.808;17.856;2023-11-19T04:26:19;26.77;;;14.73;;
48853;SDS011;34673;52.808;17.856;2023-11-19T04:28:46;30.38;;;15.88;;
48853;SDS011;34673;52.808;17.856;2023-11-19T04:31:19;29.70;;;16.02;;
48853;SDS011;34673;52.808;17.856;2023-11-19T04:33:46;28.48;;;15.68;;
48853;SDS011;34673;52.808;17.856;2023-11-19T04:36:13;28.60;;;15.40;;
48853;SDS011;34673;52.808;17.856;2023-11-19T04:38:46;25.95;;;15.10;;
48853;SDS011;34673;52.808;17.856;2023-11-19T04:41:13;29.75;;;15.75;;
48853;SDS011;34673;52.808;17.856;2023-11-19T04:43:41;28.35;;;15.23;;
48853;SDS011;34673;52.808;17.856;2023-11-19T04:46:09;26.75;;;14.70;;
48853;SDS011;34673;52.808;17.856;2023-11-19T04:48:37;26.27;;;15.27;;
48853;SDS011;34673;52.808;17.856;2023-11-19T04:51:08;27.50;;;14.13;;
48853;SDS011;34673;52.808;17.856;2023-11-19T04:56:08;26.85;;;15.02;;
48853;SDS011;34673;52.808;17.856;2023-11-19T04:58:36;28.33;;;14.55;;
48853;SDS011;34673;52.808;17.856;2023-11-19T05:01:04;26.75;;;14.38;;
48853;SDS011;34673;52.808;17.856;2023-11-19T05:03:31;27.88;;;14.88;;
48853;SDS011;34673;52.808;17.856;2023-11-19T05:05:59;29.40;;;15.50;;
48853;SDS011;34673;52.808;17.856;2023-11-19T05:08:26;32.10;;;17.35;;
48853;SDS011;34673;52.808;17.856;2023-11-19T05:10:53;31.80;;;17.00;;
48853;SDS011;34673;52.808;17.856;2023-11-19T05:13:22;31.13;;;16.35;;
48853;SDS011;34673;52.808;17.856;2023-11-19T05:15:49;29.65;;;16.85;;
48853;SDS011;34673;52.808;17.856;2023-11-19T05:18:16;27.70;;;14.43;;
48853;SDS011;34673;52.808;17.856;2023-11-19T05:20:44;27.70;;;16.10;;
48853;SDS011;34673;52.808;17.856;2023-11-19T05:23:12;28.17;;;15.90;;
48853;SDS011;34673;52.808;17.856;2023-11-19T05:25:42;29.58;;;16.10;;
48853;SDS011;34673;52.808;17.856;2023-11-19T05:28:09;32.17;;;16.35;;
48853;SDS011;34673;52.808;17.856;2023-11-19T05:30:37;32.05;;;18.77;;
48853;SDS011;34673;52.808;17.856;2023-11-19T05:33:04;32.35;;;18.65;;
48853;SDS011;34673;52.808;17.856;2023-11-19T05:35:31;33.38;;;16.77;;
48853;SDS011;34673;52.808;17.856;2023-11-19T05:37:58;29.73;;;15.60;;
48853;SDS011;34673;52.808;17.856;2023-11-19T05:40:26;30.40;;;15.88;;
48853;SDS011;34673;52.808;17.856;2023-11-19T05:42:53;27.65;;;15.60;;
48853;SDS011;34673;52.808;17.856;2023-11-19T05:45:20;31.25;;;15.05;;
48853;SDS011;34673;52.808;17.856;2023-11-19T05:47:47;29.58;;;16.35;;
48853;SDS011;34673;52.808;17.856;2023-11-19T05:50:15;31.83;;;18.20;;
48853;SDS011;34673;52.808;17.856;2023-11-19T05:52:42;29.77;;;15.95;;
48853;SDS011;34673;52.808;17.856;2023-11-19T05:55:10;28.98;;;16.17;;
48853;SDS011;34673;52.808;17.856;2023-11-19T05:57:37;31.27;;;16.67;;
48853;SDS011;34673;52.808;17.856;2023-11-19T06:00:08;32.53;;;16.83;;
48853;SDS011;34673;52.808;17.856;2023-11-19T06:02:37;29.13;;;17.00;;
48853;SDS011;34673;52.808;17.856;2023-11-19T06:05:05;29.80;;;15.88;;
48853;SDS011;34673;52.808;17.856;2023-11-19T06:07:33;32.70;;;17.55;;
48853;SDS011;34673;52.808;17.856;2023-11-19T06:10:01;28.20;;;15.98;;
48853;SDS011;34673;52.808;17.856;2023-11-19T06:12:29;29.55;;;15.73;;
48853;SDS011;34673;52.808;17.856;2023-11-19T06:15:00;31.40;;;15.73;;
48853;SDS011;34673;52.808;17.856;2023-11-19T06:17:27;30.70;;;16.60;;
48853;SDS011;34673;52.808;17.856;2023-11-19T06:19:54;31.55;;;17.38;;
48853;SDS011;34673;52.808;17.856;2023-11-19T06:22:21;29.27;;;17.00;;
48853;SDS011;34673;52.808;17.856;2023-11-19T06:24:49;31.52;;;17.23;;
48853;SDS011;34673;52.808;17.856;2023-11-19T06:27:16;33.38;;;16.17;;
48853;SDS011;34673;52.808;17.856;2023-11-19T06:29:43;32.45;;;16.58;;
48853;SDS011;34673;52.808;17.856;2023-11-19T06:32:11;33.53;;;17.40;;
48853;SDS011;34673;52.808;17.856;2023-11-19T06:34:41;31.60;;;16.23;;
48853;SDS011;34673;52.808;17.856;2023-11-19T06:37:08;32.42;;;16.63;;
48853;SDS011;34673;52.808;17.856;2023-11-19T06:39:36;31.38;;;16.75;;
48853;SDS011;34673;52.808;17.856;2023-11-19T06:42:04;32.08;;;16.70;;
48853;SDS011;34673;52.808;17.856;2023-11-19T06:44:31;30.83;;;16.77;;
48853;SDS011;34673;52.808;17.856;2023-11-19T06:46:58;32.55;;;18.55;;
48853;SDS011;34673;52.808;17.856;2023-11-19T06:49:25;34.13;;;17.88;;
48853;SDS011;34673;52.808;17.856;2023-11-19T06:51:53;32.97;;;16.98;;
48853;SDS011;34673;52.808;17.856;2023-11-19T06:54:20;33.45;;;19.20;;
48853;SDS011;34673;52.808;17.856;2023-11-19T06:56:48;30.83;;;17.00;;
48853;SDS011;34673;52.808;17.856;2023-11-19T06:59:16;32.22;;;17.88;;
48853;SDS011;34673;52.808;17.856;2023-11-19T07:01:43;37.88;;;18.92;;
48853;SDS011;34673;52.808;17.856;2023-11-19T07:04:13;32.65;;;18.25;;
48853;SDS011;34673;52.808;17.856;2023-11-19T07:06:40;33.30;;;18.02;;
48853;SDS011;34673;52.808;17.856;2023-11-19T07:09:10;33.40;;;17.33;;
48853;SDS011;34673;52.808;17.856;2023-11-19T07:11:38;33.42;;;17.27;;
48853;SDS011;34673;52.808;17.856;2023-11-19T07:14:09;34.08;;;16.88;;
48853;SDS011;34673;52.808;17.856;2023-11-19T07:16:37;33.83;;;18.75;;
48853;SDS011;34673;52.808;17.856;2023-11-19T07:19:05;32.83;;;17.33;;
48853;SDS011;34673;52.808;17.856;2023-11-19T07:21:33;32.20;;;16.30;;
48853;SDS011;34673;52.808;17.856;2023-11-19T07:24:02;30.00;;;17.17;;
48853;SDS011;34673;52.808;17.856;2023-11-19T07:26:29;32.90;;;17.85;;
48853;SDS011;34673;52.808;17.856;2023-11-19T07:28:57;28.80;;;16.00;;
48853;SDS011;34673;52.808;17.856;2023-11-19T07:31:24;29.90;;;16.42;;
48853;SDS011;34673;52.808;17.856;2023-11-19T07:33:52;29.95;;;16.58;;
48853;SDS011;34673;52.808;17.856;2023-11-19T07:36:19;32.65;;;18.27;;
48853;SDS011;34673;52.808;17.856;2023-11-19T07:38:46;27.02;;;15.80;;
48853;SDS011;34673;52.808;17.856;2023-11-19T07:41:17;31.65;;;17.52;;
48853;SDS011;34673;52.808;17.856;2023-11-19T07:43:44;30.48;;;16.75;;
48853;SDS011;34673;52.808;17.856;2023-11-19T07:46:13;30.83;;;15.93;;
48853;SDS011;34673;52.808;17.856;2023-11-19T07:48:41;32.75;;;18.90;;
48853;SDS011;34673;52.808;17.856;2023-11-19T07:51:10;31.63;;;17.13;;
48853;SDS011;34673;52.808;17.856;2023-11-19T07:53:39;33.33;;;18.83;;
48853;SDS011;34673;52.808;17.856;2023-11-19T07:56:07;30.38;;;17.25;;
48853;SDS011;34673;52.808;17.856;2023-11-19T07:58:35;32.42;;;18.67;;
48853;SDS011;34673;52.808;17.856;2023-11-19T08:01:03;34.30;;;18.15;;
48853;SDS011;34673;52.808;17.856;2023-11-19T08:03:31;30.65;;;16.40;;
48853;SDS011;34673;52.808;17.856;2023-11-19T08:06:01;29.63;;;16.40;;
48853;SDS011;34673;52.808;17.856;2023-11-19T08:08:30;32.85;;;17.92;;
48853;SDS011;34673;52.808;17.856;2023-11-19T08:11:00;33.42;;;17.85;;
48853;SDS011;34673;52.808;17.856;2023-11-19T08:13:27;33.70;;;19.35;;
48853;SDS011;34673;52.808;17.856;2023-11-19T08:15:54;30.83;;;17.27;;
48853;SDS011;34673;52.808;17.856;2023-11-19T08:18:22;30.08;;;16.20;;
48853;SDS011;34673;52.808;17.856;2023-11-19T08:20:49;30.13;;;16.40;;
48853;SDS011;34673;52.808;17.856;2023-11-19T08:23:20;33.67;;;17.25;;
48853;SDS011;34673;52.808;17.856;2023-11-19T08:25:47;31.85;;;16.92;;
48853;SDS011;34673;52.808;17.856;2023-11-19T08:28:15;32.97;;;18.20;;
48853;SDS011;34673;52.808;17.856;2023-11-19T08:30:42;32.50;;;18.10;;
48853;SDS011;34673;52.808;17.856;2023-11-19T08:33:10;28.88;;;16.52;;
48853;SDS011;34673;52.808;17.856;2023-11-19T08:35:38;32.97;;;16.38;;
48853;SDS011;34673;52.808;17.856;2023-11-19T08:38:05;33.22;;;16.98;;
48853;SDS011;34673;52.808;17.856;2023-11-19T08:40:33;30.35;;;17.10;;
48853;SDS011;34673;52.808;17.856;2023-11-19T08:43:00;29.77;;;18.60;;
48853;SDS011;34673;52.808;17.856;2023-11-19T08:45:28;30.75;;;16.73;;
48853;SDS011;34673;52.808;17.856;2023-11-19T08:47:55;31.55;;;17.77;;
48853;SDS011;34673;52.808;17.856;2023-11-19T08:50:23;30.48;;;16.42;;
48853;SDS011;34673;52.808;17.856;2023-11-19T08:52:50;31.52;;;15.82;;
48853;SDS011;34673;52.808;17.856;2023-11-19T08:55:18;26.92;;;14.85;;
48853;SDS011;34673;52.808;17.856;2023-11-19T08:57:45;30.17;;;16.75;;
48853;SDS011;34673;52.808;17.856;2023-11-19T09:00:13;28.80;;;15.57;;
48853;SDS011;34673;52.808;17.856;2023-11-19T09:02:41;28.92;;;17.90;;
48853;SDS011;34673;52.808;17.856;2023-11-19T09:05:10;31.70;;;15.95;;
48853;SDS011;34673;52.808;17.856;2023-11-19T09:07:37;28.02;;;15.10;;
48853;SDS011;34673;52.808;17.856;2023-11-19T09:10:05;31.85;;;16.42;;
48853;SDS011;34673;52.808;17.856;2023-11-19T09:12:32;32.70;;;17.17;;
48853;SDS011;34673;52.808;17.856;2023-11-19T09:15:00;29.52;;;15.57;;
48853;SDS011;34673;52.808;17.856;2023-11-19T09:17:27;29.52;;;16.88;;
48853;SDS011;34673;52.808;17.856;2023-11-19T09:19:54;29.48;;;16.77;;
48853;SDS011;34673;52.808;17.856;2023-11-19T09:22:22;28.92;;;16.55;;
48853;SDS011;34673;52.808;17.856;2023-11-19T09:24:49;32.33;;;17.83;;
48853;SDS011;34673;52.808;17.856;2023-11-19T09:27:16;29.92;;;17.08;;
48853;SDS011;34673;52.808;17.856;2023-11-19T09:29:44;33.83;;;17.67;;
48853;SDS011;34673;52.808;17.856;2023-11-19T09:32:13;32.63;;;19.10;;
48853;SDS011;34673;52.808;17.856;2023-11-19T09:34:41;29.90;;;16.65;;
48853;SDS011;34673;52.808;17.856;2023-11-19T09:37:08;32.55;;;17.63;;
48853;SDS011;34673;52.808;17.856;2023-11-19T09:39:38;29.13;;;15.88;;
48853;SDS011;34673;52.808;17.856;2023-11-19T09:42:05;31.30;;;17.75;;
48853;SDS011;34673;52.808;17.856;2023-11-19T09:44:32;31.05;;;17.45;;
48853;SDS011;34673;52.808;17.856;2023-11-19T09:47:00;32.15;;;16.33;;
48853;SDS011;34673;52.808;17.856;2023-11-19T09:49:28;31.30;;;16.48;;
48853;SDS011;34673;52.808;17.856;2023-11-19T09:51:59;34.22;;;18.98;;
48853;SDS011;34673;52.808;17.856;2023-11-19T09:54:26;30.55;;;17.08;;
48853;SDS011;34673;52.808;17.856;2023-11-19T09:56:54;32.70;;;20.55;;
48853;SDS011;34673;52.808;17.856;2023-11-19T09:59:30;34.15;;;18.85;;
48853;SDS011;34673;52.808;17.856;2023-11-19T10:01:58;36.65;;;18.80;;
48853;SDS011;34673;52.808;17.856;2023-11-19T10:04:26;37.28;;;18.45;;
48853;SDS011;34673;52.808;17.856;2023-11-19T10:06:57;38.53;;;21.35;;
48853;SDS011;34673;52.808;17.856;2023-11-19T10:09:25;36.83;;;19.77;;
48853;SDS011;34673;52.808;17.856;2023-11-19T10:11:52;36.92;;;20.27;;
48853;SDS011;34673;52.808;17.856;2023-11-19T10:14:20;41.28;;;22.13;;
48853;SDS011;34673;52.808;17.856;2023-11-19T10:16:50;39.25;;;23.17;;
48853;SDS011;34673;52.808;17.856;2023-11-19T10:19:21;41.35;;;20.98;;
48853;SDS011;34673;52.808;17.856;2023-11-19T10:21:48;45.13;;;22.77;;
48853;SDS011;34673;52.808;17.856;2023-11-19T10:24:15;41.25;;;21.98;;
48853;SDS011;34673;52.808;17.856;2023-11-19T10:29:13;47.00;;;23.80;;
48853;SDS011;34673;52.808;17.856;2023-11-19T10:31:41;45.42;;;20.98;;
48853;SDS011;34673;52.808;17.856;2023-11-19T10:34:43;47.47;;;23.90;;
48853;SDS011;34673;52.808;17.856;2023-11-19T10:40:10;43.28;;;22.00;;
48853;SDS011;34673;52.808;17.856;2023-11-19T10:42:37;49.10;;;22.52;;
48853;SDS011;34673;52.808;17.856;2023-11-19T10:45:05;51.95;;;23.65;;
48853;SDS011;34673;52.808;17.856;2023-11-19T10:47:48;49.92;;;24.00;;
48853;SDS011;34673;52.808;17.856;2023-11-19T10:50:18;44.38;;;21.15;;
48853;SDS011;34673;52.808;17.856;2023-11-19T10:52:45;49.47;;;22.27;;
48853;SDS011;34673;52.808;17.856;2023-11-19T10:55:15;59.85;;;25.05;;
48853;SDS011;34673;52.808;17.856;2023-11-19T10:57:47;53.38;;;24.15;;
48853;SDS011;34673;52.808;17.856;2023-11-19T11:00:17;52.20;;;23.85;;
48853;SDS011;34673;52.808;17.856;2023-11-19T11:02:49;54.55;;;23.42;;
48853;SDS011;34673;52.808;17.856;2023-11-19T11:05:22;56.80;;;23.83;;
48853;SDS011;34673;52.808;17.856;2023-11-19T11:07:51;55.17;;;24.27;;
48853;SDS011;34673;52.808;17.856;2023-11-19T11:10:24;52.45;;;23.38;;
48853;SDS011;34673;52.808;17.856;2023-11-19T11:12:53;52.92;;;24.27;;
48853;SDS011;34673;52.808;17.856;2023-11-19T11:15:28;64.82;;;25.02;;
48853;SDS011;34673;52.808;17.856;2023-11-19T11:18:01;59.28;;;26.40;;
48853;SDS011;34673;52.808;17.856;2023-11-19T11:20:32;54.72;;;24.38;;
48853;SDS011;34673;52.808;17.856;2023-11-19T11:35:02;64.88;;;29.05;;
48853;SDS011;34673;52.808;17.856;2023-11-19T11:37:50;61.30;;;25.70;;
48853;SDS011;34673;52.808;17.856;2023-11-19T11:40:27;64.75;;;27.38;;
48853;SDS011;34673;52.808;17.856;2023-11-19T11:42:54;63.47;;;28.13;;
48853;SDS011;34673;52.808;17.856;2023-11-19T11:45:38;75.90;;;29.75;;
48853;SDS011;34673;52.808;17.856;2023-11-19T11:48:11;60.20;;;25.65;;
48853;SDS011;34673;52.808;17.856;2023-11-19T11:53:35;56.83;;;25.20;;
48853;SDS011;34673;52.808;17.856;2023-11-19T11:56:03;66.47;;;27.15;;
48853;SDS011;34673;52.808;17.856;2023-11-19T11:58:35;70.32;;;31.83;;
48853;SDS011;34673;52.808;17.856;2023-11-19T12:01:04;70.25;;;27.58;;
48853;SDS011;34673;52.808;17.856;2023-11-19T12:03:36;61.15;;;26.13;;
48853;SDS011;34673;52.808;17.856;2023-11-19T12:06:05;68.82;;;27.08;;
48853;SDS011;34673;52.808;17.856;2023-11-19T12:08:33;70.85;;;26.75;;
48853;SDS011;34673;52.808;17.856;2023-11-19T12:11:19;68.65;;;27.40;;
48853;SDS011;34673;52.808;17.856;2023-11-19T12:13:47;64.30;;;26.13;;
48853;SDS011;34673;52.808;17.856;2023-11-19T12:16:22;65.53;;;28.23;;
48853;SDS011;34673;52.808;17.856;2023-11-19T12:18:50;62.13;;;26.13;;
48853;SDS011;34673;52.808;17.856;2023-11-19T12:21:29;52.88;;;23.08;;
48853;SDS011;34673;52.808;17.856;2023-11-19T12:23:58;57.72;;;25.23;;
48853;SDS011;34673;52.808;17.856;2023-11-19T12:26:34;60.30;;;24.20;;
48853;SDS011;34673;52.808;17.856;2023-11-19T12:29:02;51.85;;;22.17;;
48853;SDS011;34673;52.808;17.856;2023-11-19T12:31:35;60.63;;;25.08;;
48853;SDS011;34673;52.808;17.856;2023-11-19T12:34:06;54.08;;;25.50;;
48853;SDS011;34673;52.808;17.856;2023-11-19T12:36:34;54.67;;;23.05;;
48853;SDS011;34673;52.808;17.856;2023-11-19T12:39:02;49.17;;;22.58;;
48853;SDS011;34673;52.808;17.856;2023-11-19T12:41:30;52.65;;;23.55;;
48853;SDS011;34673;52.808;17.856;2023-11-19T12:44:10;48.70;;;22.98;;
48853;SDS011;34673;52.808;17.856;2023-11-19T12:46:39;46.05;;;21.17;;
48853;SDS011;34673;52.808;17.856;2023-11-19T12:49:06;46.33;;;21.63;;
48853;SDS011;34673;52.808;17.856;2023-11-19T12:51:33;50.33;;;21.52;;
48853;SDS011;34673;52.808;17.856;2023-11-19T12:54:01;52.90;;;23.10;;
48853;SDS011;34673;52.808;17.856;2023-11-19T12:56:28;52.53;;;25.55;;
48853;SDS011;34673;52.808;17.856;2023-11-19T12:58:56;49.15;;;22.65;;
48853;SDS011;34673;52.808;17.856;2023-11-19T13:01:23;55.20;;;23.55;;
48853;SDS011;34673;52.808;17.856;2023-11-19T13:03:51;50.63;;;23.00;;
48853;SDS011;34673;52.808;17.856;2023-11-19T13:06:18;49.63;;;22.50;;
48853;SDS011;34673;52.808;17.856;2023-11-19T13:08:48;50.53;;;21.73;;
48853;SDS011;34673;52.808;17.856;2023-11-19T13:11:35;39.72;;;19.27;;
48853;SDS011;34673;52.808;17.856;2023-11-19T13:14:03;44.58;;;19.13;;
48853;SDS011;34673;52.808;17.856;2023-11-19T13:16:32;38.83;;;19.38;;
48853;SDS011;34673;52.808;17.856;2023-11-19T13:19:00;38.20;;;18.98;;
48853;SDS011;34673;52.808;17.856;2023-11-19T13:21:27;39.25;;;16.92;;
48853;SDS011;34673;52.808;17.856;2023-11-19T13:23:56;37.63;;;17.27;;
48853;SDS011;34673;52.808;17.856;2023-11-19T13:26:23;30.27;;;15.65;;
48853;SDS011;34673;52.808;17.856;2023-11-19T13:28:51;31.20;;;14.55;;
48853;SDS011;34673;52.808;17.856;2023-11-19T13:31:18;39.03;;;17.35;;
48853;SDS011;34673;52.808;17.856;2023-11-19T13:33:46;33.25;;;15.73;;
48853;SDS011;34673;52.808;17.856;2023-11-19T13:36:13;43.10;;;19.30;;
48853;SDS011;34673;52.808;17.856;2023-11-19T13:38:43;37.15;;;16.85;;
48853;SDS011;34673;52.808;17.856;2023-11-19T13:41:14;33.30;;;16.85;;
48853;SDS011;34673;52.808;17.856;2023-11-19T13:43:41;40.97;;;19.95;;
48853;SDS011;34673;52.808;17.856;2023-11-19T13:46:09;36.70;;;17.58;;
48853;SDS011;34673;52.808;17.856;2023-11-19T13:48:37;41.72;;;20.05;;
48853;SDS011;34673;52.808;17.856;2023-11-19T13:51:05;35.13;;;16.23;;
48853;SDS011;34673;52.808;17.856;2023-11-19T13:53:33;39.28;;;17.00;;
48853;SDS011;34673;52.808;17.856;2023-11-19T13:58:30;41.45;;;18.17;;
48853;SDS011;34673;52.808;17.856;2023-11-19T14:00:57;39.83;;;18.00;;
48853;SDS011;34673;52.808;17.856;2023-11-19T14:03:25;34.63;;;16.27;;
48853;SDS011;34673;52.808;17.856;2023-11-19T14:05:53;41.85;;;19.05;;
48853;SDS011;34673;52.808;17.856;2023-11-19T14:08:22;39.58;;;17.70;;
48853;SDS011;34673;52.808;17.856;2023-11-19T14:10:51;42.03;;;20.08;;
48853;SDS011;34673;52.808;17.856;2023-11-19T14:13:22;40.65;;;18.90;;
48853;SDS011;34673;52.808;17.856;2023-11-19T14:15:50;39.08;;;18.25;;
48853;SDS011;34673;52.808;17.856;2023-11-19T14:18:18;43.53;;;18.90;;
48853;SDS011;34673;52.808;17.856;2023-11-19T14:20:46;42.22;;;20.23;;
48853;SDS011;34673;52.808;17.856;2023-11-19T14:23:13;34.22;;;15.68;;
48853;SDS011;34673;52.808;17.856;2023-11-19T14:25:40;41.92;;;18.92;;
48853;SDS011;34673;52.808;17.856;2023-11-19T14:28:07;43.20;;;19.73;;
48853;SDS011;34673;52.808;17.856;2023-11-19T14:30:35;38.05;;;17.55;;
48853;SDS011;34673;52.808;17.856;2023-11-19T14:33:02;42.95;;;20.13;;
48853;SDS011;34673;52.808;17.856;2023-11-19T14:35:30;41.60;;;19.60;;
48853;SDS011;34673;52.808;17.856;2023-11-19T14:37:59;44.53;;;21.30;;
48853;SDS011;34673;52.808;17.856;2023-11-19T14:40:27;44.60;;;20.30;;
48853;SDS011;34673;52.808;17.856;2023-11-19T14:45:24;44.63;;;20.33;;
48853;SDS011;34673;52.808;17.856;2023-11-19T14:47:51;39.28;;;17.08;;
48853;SDS011;34673;52.808;17.856;2023-11-19T14:50:19;36.55;;;16.65;;